Time;durP1;ratioP1;P1;durP2;ratioP2;P2;SDS_P1;SDS_P2;PMS_P1;PMS_P2;Temp;Humidity;BMP_temperature;BMP_pressure;BME280_temperature;BME280_humidity;BME280_pressure;Samples;Min_cycle;Max_cycle;Signal;HPM_P1;HPM_P2
2024/04/14 00:00:50;;;;;;;10.25;5.03;;;;;;;14.78;100.00;99454.84;5459084;26;20347;-96
2024/04/14 00:03:17;;;;;;;12.65;5.90;;;;;;;15.11;100.00;99523.41;5444981;26;20030;-95
2024/04/14 00:05:43;;;;;;;10.80;6.03;;;;;;;15.35;100.00;99581.53;5457198;26;20021;-96
2024/04/14 00:08:10;;;;;;;9.18;5.30;;;;;;;15.05;100.00;99579.84;5447716;26;20013;-96
2024/04/14 00:10:36;;;;;;;9.70;5.53;;;;;;;14.29;100.00;99459.09;5449248;26;20007;-96
2024/04/14 00:13:07;;;;;;;12.13;5.90;;;;;;;14.43;100.00;99439.91;5463961;26;19999;-96
2024/04/14 00:15:36;;;;;;;8.70;5.55;;;;;;;14.45;100.00;99438.06;5464076;26;20056;-96
2024/04/14 00:18:05;;;;;;;10.13;5.72;;;;;;;14.45;100.00;99469.31;5421844;26;20468;-95
2024/04/14 00:20:32;;;;;;;12.25;5.57;;;;;;;14.99;100.00;99581.81;5432180;26;20007;-95
2024/04/14 00:22:59;;;;;;;7.88;4.97;;;;;;;13.87;100.00;99445.19;5455867;26;19999;-95
2024/04/14 00:25:26;;;;;;;8.60;5.50;;;;;;;14.55;100.00;99578.72;5455046;26;20017;-95
2024/04/14 00:27:52;;;;;;;7.68;5.00;;;;;;;14.33;100.00;99522.28;5453579;26;20010;-95
2024/04/14 00:30:18;;;;;;;7.68;4.30;;;;;;;13.94;100.00;99444.09;5440627;26;20015;-95
2024/04/14 00:32:47;;;;;;;8.57;4.28;;;;;;;14.90;100.00;99576.75;5445344;26;20031;-96
2024/04/14 00:35:16;;;;;;;8.18;4.50;;;;;;;15.06;100.00;99584.28;5456445;26;20007;-95
2024/04/14 00:37:43;;;;;;;10.88;4.03;;;;;;;15.03;100.00;99576.34;5433536;26;20007;-96
2024/04/14 00:40:10;;;;;;;7.90;4.47;;;;;;;14.15;100.00;99448.78;5438493;26;20008;-96
2024/04/14 00:42:36;;;;;;;7.10;4.47;;;;;;;14.29;99.16;99448.38;5438112;26;20007;-96
2024/04/14 00:45:03;;;;;;;9.20;4.38;;;;;;;15.10;98.33;99578.78;5439096;26;20040;-96
2024/04/14 00:47:29;;;;;;;4.75;3.50;;;;;;;14.92;98.28;99560.63;5446755;26;20042;-96
2024/04/14 00:49:58;;;;;;;5.80;3.47;;;;;;;14.33;95.67;99443.78;5457557;26;20007;-96
2024/04/14 00:52:27;;;;;;;5.93;3.38;;;;;;;14.29;93.40;99450.16;5454024;26;20021;-95
2024/04/14 00:54:55;;;;;;;5.20;3.30;;;;;;;15.11;92.87;99582.31;5451334;26;20056;-94
2024/04/14 00:57:25;;;;;;;8.27;3.55;;;;;;;15.12;92.02;99576.06;5457393;26;20030;-96
2024/04/14 00:59:57;;;;;;;7.43;3.90;;;;;;;14.99;93.20;99575.59;5459668;26;20054;-96
2024/04/14 01:02:24;;;;;;;6.20;3.78;;;;;;;14.99;92.51;99579.13;5461295;26;20003;-96
2024/04/14 01:04:53;;;;;;;7.18;3.33;;;;;;;14.19;91.82;99460.28;5470709;26;20463;-94
2024/04/14 01:07:22;;;;;;;7.05;3.40;;;;;;;14.51;91.48;99506.56;5467182;26;20009;-96
2024/04/14 01:09:52;;;;;;;6.72;3.22;;;;;;;14.51;91.77;99506.56;5474219;26;19995;-95
2024/04/14 01:12:18;;;;;;;;;;;;;;;14.94;92.25;99574.84;5480490;26;20001;-96
2024/04/14 01:14:45;;;;;;;6.95;3.60;;;;;;;14.89;92.51;99583.00;5478886;26;19932;-96
2024/04/14 01:17:11;;;;;;;6.45;4.07;;;;;;;14.94;92.33;99586.44;5467533;26;20011;-96
2024/04/14 01:19:37;;;;;;;4.05;2.90;;;;;;;14.01;93.80;99456.38;5474671;26;20005;-96
2024/04/14 01:22:07;;;;;;;5.07;3.25;;;;;;;14.75;93.05;99585.28;5475936;26;20014;-96
2024/04/14 01:24:33;;;;;;;6.57;3.50;;;;;;;14.49;91.07;99581.56;5461382;26;20043;-95
2024/04/14 01:27:05;;;;;;;6.18;3.33;;;;;;;14.57;92.78;99586.69;5455191;26;20007;-96
2024/04/14 01:29:32;;;;;;;5.90;3.10;;;;;;;13.81;92.26;99450.72;5443463;26;20483;-96
2024/04/14 01:31:58;;;;;;;6.63;3.35;;;;;;;14.68;90.79;99586.38;5454292;26;20011;-95
2024/04/14 01:34:25;;;;;;;5.65;3.08;;;;;;;13.98;89.91;99467.16;5460851;26;20003;-96
2024/04/14 01:36:54;;;;;;;6.88;3.50;;;;;;;13.84;89.95;99450.66;5461467;26;20014;-95
2024/04/14 01:39:28;;;;;;;5.50;3.28;;;;;;;13.96;89.94;99458.28;5442360;26;20008;-96
2024/04/14 01:41:55;;;;;;;7.32;3.13;;;;;;;14.23;90.70;99507.41;5457215;26;20014;-96
2024/04/14 01:44:26;;;;;;;;;;;;;;;14.72;90.78;99593.38;5445335;26;20007;-95
2024/04/14 01:46:54;;;;;;;6.50;3.45;;;;;;;14.44;92.96;99588.81;5444077;26;20366;-96
2024/04/14 01:49:21;;;;;;;8.77;4.35;;;;;;;13.40;94.12;99460.78;5461841;26;20018;-95
2024/04/14 01:51:47;;;;;;;7.85;4.20;;;;;;;13.39;94.96;99461.72;5439622;26;20003;-95
2024/04/14 01:54:19;;;;;;;10.02;5.15;;;;;;;13.37;94.68;99448.41;5455621;26;20006;-95
2024/04/14 01:56:48;;;;;;;8.82;4.28;;;;;;;14.28;94.76;99592.88;5456307;26;20016;-95
2024/04/14 01:59:17;;;;;;;8.63;4.38;;;;;;;13.65;93.03;99463.66;5457007;26;20003;-96
2024/04/14 02:01:46;;;;;;;10.05;5.15;;;;;;;14.41;93.34;99598.75;5463732;26;20473;-95
2024/04/14 02:04:14;;;;;;;8.50;4.10;;;;;;;14.03;96.14;99593.59;5448500;26;20003;-95
2024/04/14 02:06:41;;;;;;;7.00;3.55;;;;;;;13.74;95.32;99586.34;5441396;26;20077;-96
2024/04/14 02:09:07;;;;;;;9.18;3.85;;;;;;;13.81;94.99;99587.06;5457250;26;20003;-96
2024/04/14 02:11:33;;;;;;;6.78;3.70;;;;;;;13.89;93.76;99563.69;5439053;26;20016;-96
2024/04/14 02:14:01;;;;;;;7.63;4.03;;;;;;;13.94;92.62;99551.03;5428777;26;20014;-96
2024/04/14 02:16:28;;;;;;;7.55;4.72;;;;;;;13.38;98.82;99537.44;5420963;26;20018;-96
2024/04/14 02:18:57;;;;;;;7.82;4.78;;;;;;;13.40;100.00;99544.47;5452516;26;20075;-94
2024/04/14 02:21:23;;;;;;;10.02;5.53;;;;;;;13.53;100.00;99545.03;5446111;26;20922;-94
2024/04/14 02:23:49;;;;;;;9.55;5.90;;;;;;;13.23;100.00;99480.81;5450427;26;20010;-96
2024/04/14 02:26:15;;;;;;;12.27;5.03;;;;;;;13.90;100.00;99586.81;5447703;26;20007;-95
2024/04/14 02:28:41;;;;;;;8.35;4.50;;;;;;;13.11;100.00;99444.59;5453902;26;20127;-95
2024/04/14 02:31:08;;;;;;;9.50;5.00;;;;;;;14.04;100.00;99587.31;5458611;26;20050;-95
2024/04/14 02:33:34;;;;;;;11.43;4.68;;;;;;;13.37;100.00;99456.41;5456519;26;20018;-95
2024/04/14 02:36:03;;;;;;;8.38;4.20;;;;;;;13.72;100.00;99565.00;5436255;26;20025;-96
2024/04/14 02:38:30;;;;;;;11.30;4.35;;;;;;;13.31;97.27;99526.03;5435121;26;20034;-95
2024/04/14 02:40:57;;;;;;;7.10;3.80;;;;;;;13.16;95.78;99508.56;5432606;26;20032;-95
2024/04/14 02:43:23;;;;;;;7.03;3.20;;;;;;;13.45;95.91;99585.34;5452360;26;20003;-94
2024/04/14 02:45:49;;;;;;;5.63;3.45;;;;;;;13.06;95.63;99525.75;5451017;26;20477;-95
2024/04/14 02:48:15;;;;;;;6.63;3.60;;;;;;;13.17;94.09;99520.16;5428929;26;20038;-95
2024/04/14 02:50:45;;;;;;;6.25;3.20;;;;;;;13.82;93.76;99578.16;5465749;26;20007;-96
2024/04/14 02:53:14;;;;;;;5.78;4.03;;;;;;;13.18;92.68;99439.97;5459033;26;20014;-95
2024/04/14 02:55:40;;;;;;;7.70;3.45;;;;;;;13.13;91.51;99434.75;5457302;26;20018;-96
2024/04/14 02:58:07;;;;;;;6.07;3.40;;;;;;;13.83;92.67;99566.50;5450265;26;20003;-95
2024/04/14 03:00:33;;;;;;;7.28;3.30;;;;;;;12.73;94.63;99421.59;5445625;26;20080;-96
2024/04/14 03:02:59;;;;;;;7.90;3.45;;;;;;;13.72;94.60;99574.81;5443930;26;20007;-95
2024/04/14 03:05:26;;;;;;;8.05;3.53;;;;;;;13.19;90.83;99427.53;5453090;26;20006;-95
2024/04/14 03:07:53;;;;;;;6.55;3.58;;;;;;;13.65;88.61;99474.34;5460020;26;20006;-96
2024/04/14 03:10:31;;;;;;;5.68;2.90;;;;;;;14.22;88.45;99574.34;5467594;26;20110;-95
2024/04/14 03:13:05;;;;;;;4.50;3.13;;;;;;;13.76;88.85;99501.66;5471377;26;20006;-96
2024/04/14 03:15:37;;;;;;;5.68;3.10;;;;;;;13.48;88.49;99443.63;5464303;26;20003;-96
2024/04/14 03:18:04;;;;;;;6.22;3.88;;;;;;;13.34;89.86;99438.69;5462290;26;20006;-95
2024/04/14 03:20:30;;;;;;;8.52;3.40;;;;;;;13.22;91.23;99436.31;5463825;26;20027;-96
2024/04/14 03:22:57;;;;;;;7.00;3.38;;;;;;;13.24;89.97;99450.50;5462350;26;20003;-96
2024/04/14 03:25:29;;;;;;;6.63;3.20;;;;;;;13.12;91.61;99445.50;5461027;26;20479;-95
2024/04/14 03:27:56;;;;;;;5.18;3.25;;;;;;;13.81;91.74;99577.25;5463251;26;20011;-96
2024/04/14 03:30:26;;;;;;;7.65;3.53;;;;;;;13.00;91.90;99457.38;5461288;26;20002;-96
2024/04/14 03:32:55;;;;;;;6.70;3.13;;;;;;;12.85;93.55;99452.44;5461897;26;19999;-96
2024/04/14 03:35:21;;;;;;;4.90;3.00;;;;;;;13.62;92.57;99582.22;5461184;26;20003;-96
2024/04/14 03:37:47;;;;;;;7.90;3.25;;;;;;;13.61;91.55;99580.47;5458603;26;20457;-96
2024/04/14 03:40:13;;;;;;;6.82;3.88;;;;;;;13.09;93.92;99512.31;5451262;26;20003;-94
2024/04/14 03:42:45;;;;;;;5.20;3.28;;;;;;;13.40;94.86;99568.53;5459955;26;19998;-96
2024/04/14 03:45:11;;;;;;;5.47;3.35;;;;;;;12.62;94.40;99445.88;5428998;26;20018;-96
2024/04/14 03:47:40;;;;;;;6.25;3.05;;;;;;;12.68;94.55;99447.50;5425900;26;20000;-96
2024/04/14 03:50:07;;;;;;;6.55;3.65;;;;;;;12.53;95.58;99441.66;5444096;26;20338;-96
2024/04/14 03:52:37;;;;;;;6.40;3.47;;;;;;;13.40;95.05;99575.66;5460273;26;20451;-96
2024/04/14 03:55:06;;;;;;;;;;;;;;;13.29;96.08;99575.94;5461356;26;20005;-96
2024/04/14 03:57:33;;;;;;;8.73;3.55;;;;;;;13.28;95.88;99579.50;5462155;26;19930;-96
2024/04/14 04:00:08;;;;;;;6.63;3.60;;;;;;;12.49;95.70;99461.31;5462736;26;20088;-96
2024/04/14 04:02:37;;;;;;;5.53;3.17;;;;;;;12.46;95.61;99469.38;5458760;26;20018;-96
2024/04/14 04:05:08;;;;;;;6.70;2.97;;;;;;;12.36;95.57;99470.50;5461303;26;20467;-95
2024/04/14 04:07:36;;;;;;;6.05;3.58;;;;;;;13.08;96.12;99596.91;5427025;26;19995;-96
2024/04/14 04:10:06;;;;;;;6.22;3.47;;;;;;;12.20;96.29;99469.09;5426191;26;20007;-95
2024/04/14 04:12:33;;;;;;;5.45;3.30;;;;;;;11.58;100.00;99465.03;5412382;26;20023;-95
2024/04/14 04:15:00;;;;;;;7.15;4.00;;;;;;;11.76;100.00;99457.59;5385461;26;20009;-95
2024/04/14 04:17:29;;;;;;;6.60;3.67;;;;;;;12.64;100.00;99603.25;5387127;26;20344;-96
2024/04/14 04:19:55;;;;;;;8.52;3.90;;;;;;;11.86;100.00;99465.34;5389389;26;20008;-96
2024/04/14 04:22:22;;;;;;;7.70;3.47;;;;;;;12.68;100.00;99595.13;5392705;26;20023;-96
2024/04/14 04:24:48;;;;;;;6.47;3.40;;;;;;;12.58;100.00;99593.59;5389384;26;20001;-96
2024/04/14 04:27:18;;;;;;;8.40;3.92;;;;;;;12.61;100.00;99592.66;5402976;26;20019;-96
2024/04/14 04:29:44;;;;;;;7.13;3.65;;;;;;;11.91;100.00;99473.28;5392443;26;20468;-94
2024/04/14 04:32:16;;;;;;;7.93;3.38;;;;;;;11.94;100.00;99478.53;5392456;26;20007;-96
2024/04/14 04:34:46;;;;;;;9.13;4.10;;;;;;;11.94;100.00;99445.69;5389492;26;20012;-96
2024/04/14 04:37:17;;;;;;;7.35;3.50;;;;;;;13.02;98.02;99612.19;5391577;26;20011;-96
2024/04/14 04:39:43;;;;;;;6.90;3.08;;;;;;;12.45;97.34;99522.78;5396970;26;20011;-95
2024/04/14 04:42:10;;;;;;;6.00;3.17;;;;;;;13.10;96.13;99612.91;5396338;26;20004;-96
2024/04/14 04:44:48;;;;;;;7.18;3.70;;;;;;;12.39;95.02;99483.75;5397050;26;20001;-96
2024/04/14 04:47:19;;;;;;;6.57;3.50;;;;;;;12.42;94.56;99480.13;5399585;26;20000;-95
2024/04/14 04:50:01;;;;;;;6.55;3.65;;;;;;;13.15;94.26;99597.63;5401307;26;20077;-96
2024/04/14 04:52:44;;;;;;;7.97;2.85;;;;;;;12.36;94.01;99480.28;5402783;26;20006;-96
2024/04/14 04:55:13;;;;;;;5.80;3.47;;;;;;;12.59;92.31;99498.44;5431361;26;20008;-95
2024/04/14 04:57:52;;;;;;;7.47;3.53;;;;;;;13.39;92.76;99619.34;5437665;26;20041;-95
2024/04/14 05:00:32;;;;;;;6.32;3.53;;;;;;;13.36;92.46;99620.31;5437562;26;20003;-96
2024/04/14 05:03:02;;;;;;;4.38;2.90;;;;;;;12.62;91.91;99482.34;5437512;26;20019;-95
2024/04/14 05:05:32;;;;;;;8.68;3.55;;;;;;;13.21;91.00;99602.81;5435142;26;20049;-96
2024/04/14 05:08:01;;;;;;;6.88;3.95;;;;;;;12.83;92.60;99553.88;5428950;26;20022;-96
2024/04/14 05:10:30;;;;;;;6.18;3.33;;;;;;;13.34;93.84;99638.16;5433033;26;19999;-96
2024/04/14 05:13:02;;;;;;;4.80;3.35;;;;;;;12.46;93.52;99504.03;5433295;26;20047;-96
2024/04/14 05:15:31;;;;;;;8.05;4.30;;;;;;;13.31;93.20;99632.88;5436105;26;20073;-96
2024/04/14 05:18:00;;;;;;;5.38;3.15;;;;;;;12.57;92.38;99490.44;5433500;26;20015;-95
2024/04/14 05:20:32;;;;;;;;;;;;;;;13.39;93.55;99636.25;5434075;26;20007;-96
2024/04/14 05:23:03;;;;;;;7.20;3.70;;;;;;;12.62;93.99;99519.69;5463697;26;19936;-96
2024/04/14 05:25:29;;;;;;;5.90;3.75;;;;;;;12.51;93.90;99493.25;5434164;26;20012;-96
2024/04/14 05:28:04;;;;;;;5.65;3.20;;;;;;;12.58;93.27;99483.31;5435212;26;20052;-95
2024/04/14 05:30:39;;;;;;;5.03;3.03;;;;;;;12.73;92.93;99481.19;5436291;26;20011;-96
2024/04/14 05:33:15;;;;;;;6.45;3.40;;;;;;;13.55;92.65;99623.38;5437023;26;20003;-96
2024/04/14 05:35:57;;;;;;;8.18;3.42;;;;;;;12.94;92.18;99510.91;5436903;26;20069;-95
2024/04/14 05:38:29;;;;;;;6.35;3.38;;;;;;;13.77;92.32;99623.72;5437918;26;20018;-96
2024/04/14 05:41:01;;;;;;;5.80;3.50;;;;;;;13.94;91.72;99621.47;5438623;26;20007;-96
2024/04/14 05:43:39;;;;;;;7.13;3.40;;;;;;;14.08;91.43;99623.75;5439091;26;20011;-95
2024/04/14 05:46:12;;;;;;;9.18;3.97;;;;;;;14.12;91.24;99627.22;5438624;26;19999;-95
2024/04/14 05:48:51;;;;;;;6.57;3.55;;;;;;;14.25;91.29;99628.63;5439254;26;19996;-96
2024/04/14 05:51:20;;;;;;;12.52;3.58;;;;;;;13.73;88.58;99507.09;5439794;26;20000;-96
2024/04/14 05:53:50;;;;;;;6.60;3.83;;;;;;;14.69;87.03;99630.97;5439192;26;20006;-96
2024/04/14 05:56:21;;;;;;;7.00;3.55;;;;;;;14.09;86.47;99501.59;5439687;26;20014;-96
2024/04/14 05:59:01;;;;;;;7.47;3.75;;;;;;;14.25;84.46;99499.31;5439519;26;20063;-95
2024/04/14 06:01:37;;;;;;;6.53;3.28;;;;;;;14.41;84.31;99499.75;5439929;26;20010;-96
2024/04/14 06:04:10;;;;;;;7.47;3.28;;;;;;;14.57;83.99;99501.94;5439987;26;19995;-96
2024/04/14 06:06:55;;;;;;;4.60;3.45;;;;;;;15.74;82.13;99629.41;5439345;26;20007;-96
2024/04/14 06:09:36;;;;;;;5.75;3.85;;;;;;;15.13;80.48;99509.00;5440951;26;20003;-96
2024/04/14 06:12:22;;;;;;;;;;;;;;;;;;;;;
2024/04/14 06:23:58;;;;;;;8.10;4.20;;;;;;;16.79;76.38;99639.00;5719397;22;20014;-95
2024/04/14 06:32:10;;;;;;;8.15;4.00;;;;;;;16.61;73.00;99509.88;6121905;22;20001;-95
2024/04/14 06:34:36;;;;;;;7.22;3.85;;;;;;;17.13;72.62;99586.63;5490572;22;20030;-93
2024/04/14 06:40:05;;;;;;;7.10;3.67;;;;;;;17.61;71.86;99613.31;5893591;22;19999;31
2024/04/14 08:30:42;;;;;;;12.00;4.32;;;;;;;22.67;50.91;99491.78;5292132;22;20015;-94
2024/04/14 08:33:16;;;;;;;5.88;3.53;;;;;;;23.45;51.26;99599.69;5391743;22;20018;-95
2024/04/14 08:35:42;;;;;;;7.80;4.13;;;;;;;23.24;51.39;99536.00;5762733;22;20011;-95
2024/04/14 08:38:08;;;;;;;5.47;3.47;;;;;;;23.40;49.94;99544.84;5257179;27;20004;-95
2024/04/14 08:40:34;;;;;;;5.00;3.20;;;;;;;23.52;50.60;99538.56;5253250;27;20022;-95
2024/04/14 08:43:00;;;;;;;5.15;3.40;;;;;;;23.77;49.33;99564.09;5232500;27;20023;-95
2024/04/14 08:45:29;;;;;;;5.25;3.83;;;;;;;23.74;48.28;99548.81;5229670;27;20013;-95
2024/04/14 08:47:59;;;;;;;6.18;3.80;;;;;;;23.45;49.07;99495.69;5226630;27;20022;-94
2024/04/14 08:50:26;;;;;;;9.00;4.00;;;;;;;23.80;49.05;99554.88;5237404;27;20022;-95
2024/04/14 08:52:52;;;;;;;9.20;3.95;;;;;;;23.80;49.10;99523.13;5223250;27;20018;-95
2024/04/14 08:55:19;;;;;;;6.85;3.75;;;;;;;23.70;48.31;99502.97;5225320;27;20009;-95
2024/04/14 08:57:45;;;;;;;5.63;3.75;;;;;;;24.43;49.30;99596.63;5255766;27;20014;-95
2024/04/14 09:00:13;;;;;;;7.57;3.13;;;;;;;23.68;48.51;99494.97;5232969;27;20025;-96
2024/04/14 09:02:50;;;;;;;5.78;4.10;;;;;;;23.83;48.86;99494.88;5239807;27;20007;-95
2024/04/14 09:05:20;;;;;;;6.72;3.75;;;;;;;23.91;48.71;99482.50;5275074;22;20010;-95
2024/04/14 09:07:56;;;;;;;6.72;3.97;;;;;;;24.63;48.77;99593.38;5362082;22;20052;-96
2024/04/14 09:10:33;;;;;;;5.88;3.90;;;;;;;24.10;49.01;99494.78;5202797;22;20016;-96
2024/04/14 09:12:59;;;;;;;6.00;3.70;;;;;;;24.37;49.33;99587.91;5232760;27;20015;-95
2024/04/14 09:15:25;;;;;;;7.97;4.22;;;;;;;23.88;50.21;99501.75;5230443;27;20011;-95
2024/04/14 09:17:53;;;;;;;10.23;4.00;;;;;;;24.71;49.29;99599.13;5241784;27;20051;-95
2024/04/14 09:20:27;;;;;;;7.13;4.38;;;;;;;24.47;49.27;99596.31;5266395;27;20059;-95
2024/04/14 09:22:59;;;;;;;7.18;4.00;;;;;;;24.68;49.28;99598.47;5233125;27;20022;-95
2024/04/14 09:25:30;;;;;;;8.00;3.95;;;;;;;24.21;47.68;99481.28;5237305;27;20063;-95
2024/04/14 09:28:03;;;;;;;8.55;3.83;;;;;;;24.18;48.46;99486.94;5234706;27;20011;-95
2024/04/14 09:30:33;;;;;;;9.82;3.97;;;;;;;24.19;47.85;99526.72;5256145;27;20021;-95
2024/04/14 09:32:59;;;;;;;6.53;3.92;;;;;;;24.58;49.14;99592.84;5237019;27;20028;-96
2024/04/14 09:35:29;;;;;;;8.15;4.32;;;;;;;24.21;48.93;99587.28;5253043;27;20014;-94
2024/04/14 09:37:56;;;;;;;10.02;3.90;;;;;;;24.66;48.15;99582.28;5240347;27;20455;-94
2024/04/14 09:40:36;;;;;;;4.80;3.80;;;;;;;25.00;48.43;99579.81;5235375;27;20007;-96
2024/04/14 09:43:03;;;;;;;5.85;4.38;;;;;;;24.90;48.23;99517.06;5235933;27;20008;-95
2024/04/14 09:45:31;;;;;;;10.50;4.30;;;;;;;24.44;47.52;99449.72;5239921;27;20080;-96
2024/04/14 09:48:23;;;;;;;8.27;4.22;;;;;;;25.39;48.46;99564.22;5257728;27;20018;-95
2024/04/14 09:51:01;;;;;;;12.40;4.68;;;;;;;25.65;47.83;99564.97;5247399;27;20017;-96
2024/04/14 09:53:31;;;;;;;7.75;4.80;;;;;;;25.03;47.53;99511.56;5231166;27;20022;-94
2024/04/14 09:56:00;;;;;;;7.28;4.22;;;;;;;25.18;48.98;99499.50;5266051;27;20016;-96
2024/04/14 09:58:29;;;;;;;6.35;4.30;;;;;;;25.14;48.03;99449.03;5256824;27;20022;-96
2024/04/14 10:01:03;;;;;;;10.82;5.03;;;;;;;25.30;47.43;99443.28;5259555;27;20045;-96
2024/04/14 10:03:55;;;;;;;7.50;4.57;;;;;;;25.20;48.36;99443.16;5233695;27;20011;-96
2024/04/14 10:06:31;;;;;;;9.30;4.72;;;;;;;26.04;48.14;99538.34;5267251;26;20445;-96
2024/04/14 10:09:04;;;;;;;7.30;4.65;;;;;;;25.45;45.64;99433.06;5254483;27;20003;-96
2024/04/14 10:20:03;;;;;;;4.90;3.90;;;;;;;24.64;48.75;99433.81;5412202;22;20079;-95
2024/04/14 10:22:38;;;;;;;7.80;4.85;;;;;;;25.88;47.91;99527.78;6034400;22;20004;-95
2024/04/14 10:25:26;;;;;;;6.95;3.92;;;;;;;24.68;47.35;99425.31;5311048;22;20039;-96
2024/04/14 10:27:58;;;;;;;5.78;4.03;;;;;;;25.61;47.64;99522.59;5233771;27;20063;-95
2024/04/14 10:30:25;;;;;;;6.55;3.67;;;;;;;25.78;48.03;99524.00;5240158;27;20023;-96
2024/04/14 10:33:18;;;;;;;7.97;3.70;;;;;;;25.57;46.49;99521.97;5244369;27;19999;-96
2024/04/14 10:36:05;;;;;;;7.50;3.53;;;;;;;24.92;46.27;99403.53;5266586;27;20010;-96
2024/04/14 10:38:54;;;;;;;8.32;3.33;;;;;;;25.91;45.54;99513.91;5229174;27;20003;-96
2024/04/14 10:41:31;;;;;;;5.60;3.42;;;;;;;25.52;44.42;99417.97;5248888;27;20022;-96
2024/04/14 10:44:17;;;;;;;6.07;2.85;;;;;;;26.26;43.73;99499.34;5236414;27;19995;-96
2024/04/14 10:46:49;;;;;;;5.63;3.45;;;;;;;25.76;41.75;99390.66;5277405;27;20007;-96
2024/04/14 10:49:16;;;;;;;6.50;3.63;;;;;;;26.32;40.46;99487.06;5234036;27;19995;-96
2024/04/14 10:51:47;;;;;;;6.63;3.25;;;;;;;26.12;40.70;99497.72;5245126;27;20075;-96
2024/04/14 10:54:39;;;;;;;6.43;3.75;;;;;;;26.20;41.67;99497.13;5231061;27;20011;-96
2024/04/14 10:57:08;;;;;;;5.25;2.92;;;;;;;25.53;37.45;99383.47;5242680;27;20035;-96
2024/04/14 10:59:35;;;;;;;4.35;2.70;;;;;;;25.40;35.35;99369.94;5258878;27;20008;-96
2024/04/14 11:02:02;;;;;;;4.65;3.00;;;;;;;25.32;39.50;99354.19;5249457;27;20034;-96
2024/04/14 11:04:29;;;;;;;5.78;3.10;;;;;;;26.27;38.19;99482.00;5230282;27;20059;-95
2024/04/14 11:06:55;;;;;;;5.10;2.85;;;;;;;25.98;39.83;99408.91;5223816;27;20021;-96
2024/04/14 11:09:26;;;;;;;7.13;3.20;;;;;;;26.50;40.51;99473.78;5258250;27;20003;-96
2024/04/14 11:12:24;;;;;;;4.43;2.80;;;;;;;26.19;38.46;99408.13;5250587;27;20010;-96
2024/04/14 11:15:16;;;;;;;6.55;3.63;;;;;;;25.70;39.26;99358.47;5268386;22;20060;-95
2024/04/14 11:17:42;;;;;;;8.02;3.88;;;;;;;26.60;39.47;99466.63;5208421;27;20020;-95
2024/04/14 11:20:12;;;;;;;5.20;2.95;;;;;;;26.53;38.75;99422.59;5233638;27;20721;-95
2024/04/14 11:22:38;;;;;;;10.73;5.13;;;;;;;26.17;37.55;99374.69;5214071;27;20039;-95
2024/04/14 11:25:05;;;;;;;4.85;2.90;;;;;;;26.46;38.08;99394.09;5219424;27;20256;-96
2024/04/14 11:27:31;;;;;;;12.70;2.92;;;;;;;26.46;37.28;99385.94;5228096;27;20006;-95
2024/04/14 11:29:57;;;;;;;7.20;2.90;;;;;;;26.69;37.06;99405.84;5238149;27;20419;-95
2024/04/14 11:32:29;;;;;;;6.63;2.70;;;;;;;26.87;37.42;99418.94;5229873;27;20023;-95
2024/04/14 11:34:58;;;;;;;7.88;3.30;;;;;;;27.22;37.08;99444.13;5232257;27;20062;-96
2024/04/14 11:37:24;;;;;;;5.57;3.00;;;;;;;27.35;37.87;99443.09;5201759;27;20019;-94
2024/04/14 11:39:50;;;;;;;5.70;3.15;;;;;;;27.20;36.71;99416.06;5210537;27;20019;-95
2024/04/14 11:42:18;;;;;;;4.88;3.42;;;;;;;26.60;38.31;99324.78;5211859;27;20019;-96
2024/04/14 11:44:44;;;;;;;9.77;3.25;;;;;;;27.31;37.31;99438.91;5238045;27;20061;-96
2024/04/14 11:47:13;;;;;;;8.05;2.75;;;;;;;27.11;37.53;99395.03;5222809;27;20007;-96
2024/04/14 11:49:42;;;;;;;5.45;3.22;;;;;;;26.86;37.78;99338.06;5210976;27;20058;-96
2024/04/14 11:52:10;;;;;;;6.05;3.08;;;;;;;27.05;38.28;99392.81;5221080;27;20018;-96
2024/04/14 11:54:37;;;;;;;8.20;3.30;;;;;;;27.10;37.31;99396.00;5196310;27;20014;-96
2024/04/14 11:57:04;;;;;;;4.72;2.65;;;;;;;26.81;39.54;99322.94;5211290;27;20015;-96
2024/04/14 11:59:32;;;;;;;7.35;3.22;;;;;;;27.16;38.71;99364.59;5220010;27;20018;-96
2024/04/14 12:01:58;;;;;;;4.88;3.00;;;;;;;27.12;38.33;99372.16;5210978;27;20014;-94
2024/04/14 12:04:24;;;;;;;5.55;2.75;;;;;;;27.70;37.56;99420.91;5217561;27;20533;-96
2024/04/14 12:06:54;;;;;;;4.03;3.30;;;;;;;27.18;38.22;99317.03;5205267;27;20066;-95
2024/04/14 12:09:21;;;;;;;;;;;;;;;27.73;37.11;99419.75;5199794;27;20064;-96
2024/04/14 12:11:48;;;;;;;5.05;2.92;;;;;;;27.45;36.16;99373.00;5223707;27;19932;-96
2024/04/14 12:14:15;;;;;;;4.90;2.97;;;;;;;27.36;35.29;99351.97;5211239;27;20007;-96
2024/04/14 12:16:41;;;;;;;5.97;3.42;;;;;;;27.19;35.87;99279.66;5221303;27;20026;-96
2024/04/14 12:19:07;;;;;;;4.50;3.15;;;;;;;27.69;36.50;99347.25;5202169;27;20012;-96
2024/04/14 12:21:37;;;;;;;5.03;3.33;;;;;;;27.85;36.39;99373.09;5208806;27;20364;-96
2024/04/14 12:24:10;;;;;;;5.22;2.80;;;;;;;28.09;35.62;99396.50;5214990;27;20108;-96
2024/04/14 12:26:36;;;;;;;5.43;2.30;;;;;;;27.60;33.95;99311.53;5196744;27;20023;-96
2024/04/14 12:29:02;;;;;;;5.72;2.80;;;;;;;27.69;34.42;99326.25;5213434;27;20016;-96
2024/04/14 12:31:28;;;;;;;3.65;2.35;;;;;;;27.64;33.86;99313.00;5218900;27;20026;-96
2024/04/14 12:33:54;;;;;;;4.30;2.45;;;;;;;27.64;37.01;99314.88;5221573;27;19999;-96
2024/04/14 12:36:20;;;;;;;5.13;2.70;;;;;;;27.61;34.82;99313.28;5236402;27;20008;-96
2024/04/14 12:38:49;;;;;;;5.75;2.50;;;;;;;27.90;35.97;99358.16;5221785;27;19995;-96
2024/04/14 12:41:20;;;;;;;4.03;2.65;;;;;;;27.87;36.96;99304.66;5221322;27;20012;-95
2024/04/14 12:44:28;;;;;;;5.93;2.70;;;;;;;28.26;36.29;99348.50;5259480;27;20039;-96
2024/04/14 12:46:54;;;;;;;5.88;2.83;;;;;;;27.79;34.95;99225.19;5239373;22;20022;-96
2024/04/14 12:49:26;;;;;;;5.68;3.40;;;;;;;28.10;36.04;99342.69;5182279;27;20015;-96
2024/04/14 12:51:53;;;;;;;7.80;3.10;;;;;;;28.34;35.90;99332.22;5179952;27;19995;-96
2024/04/14 12:54:19;;;;;;;5.78;2.60;;;;;;;28.44;35.27;99335.00;5174789;27;20008;-96
2024/04/14 12:57:04;;;;;;;4.15;3.10;;;;;;;28.25;36.14;99284.72;5173667;27;20043;-96
2024/04/14 12:59:30;;;;;;;3.90;2.50;;;;;;;28.43;35.01;99334.13;5177251;27;20012;-96
2024/04/14 13:01:57;;;;;;;5.95;2.53;;;;;;;28.10;34.11;99255.19;5174695;27;20005;-96
2024/04/14 13:04:23;;;;;;;4.78;2.53;;;;;;;28.41;32.40;99325.22;5233059;22;20025;-94
2024/04/14 13:14:50;;;;;;;7.35;2.65;;;;;;;28.52;33.81;99274.09;5189240;27;20032;-94
2024/04/14 13:17:16;;;;;;;3.72;2.47;;;;;;;28.72;32.32;99310.56;5155081;27;20014;-95
2024/04/14 13:19:42;;;;;;;4.47;2.50;;;;;;;28.86;33.09;99308.25;5158708;27;20023;-96
2024/04/14 13:22:08;;;;;;;6.93;2.75;;;;;;;28.72;33.92;99296.88;5156344;27;20052;-94
2024/04/14 13:24:34;;;;;;;4.22;2.83;;;;;;;28.67;33.73;99281.75;5182488;27;20012;-95
2024/04/14 13:27:00;;;;;;;3.60;2.40;;;;;;;28.63;32.54;99298.63;5152162;27;20012;-94
2024/04/14 13:29:27;;;;;;;4.35;2.58;;;;;;;28.22;33.20;99244.00;5153107;27;20020;-92
2024/04/14 13:31:56;;;;;;;4.70;2.42;;;;;;;28.21;34.66;99225.84;5157350;27;20012;-93
2024/04/14 13:34:22;;;;;;;3.92;2.65;;;;;;;28.55;34.58;99261.00;5178429;27;20012;-94
2024/04/14 13:36:48;;;;;;;6.00;2.30;;;;;;;28.40;33.31;99252.34;5152621;27;20100;-93
2024/04/14 13:39:14;;;;;;;6.70;2.72;;;;;;;28.32;33.12;99218.50;5153260;27;20012;-94
2024/04/14 13:41:39;;;;;;;4.38;2.72;;;;;;;28.25;33.07;99204.53;5149838;27;20012;-94
2024/04/14 13:44:05;;;;;;;6.47;3.17;;;;;;;28.23;33.82;99222.97;5151071;27;20356;-93
2024/04/14 13:46:32;;;;;;;5.72;2.45;;;;;;;28.16;33.25;99191.75;5147142;27;20140;-96
2024/04/14 13:49:01;;;;;;;4.28;2.70;;;;;;;28.73;32.83;99268.50;5150704;27;20022;-94
2024/04/14 13:51:27;;;;;;;4.93;2.80;;;;;;;28.05;34.09;99188.13;5152660;27;20020;-95
2024/04/14 13:53:53;;;;;;;3.63;2.47;;;;;;;28.18;33.41;99187.84;5183761;27;20036;-93
2024/04/14 13:56:19;;;;;;;6.10;3.78;;;;;;;28.76;34.41;99269.06;5153912;27;20033;-94
2024/04/14 13:58:45;;;;;;;4.30;2.92;;;;;;;28.45;34.78;99203.53;5175644;27;20013;-96
2024/04/14 14:01:14;;;;;;;6.78;2.63;;;;;;;28.63;33.68;99232.94;5149449;27;20004;-96
2024/04/14 14:03:40;;;;;;;;;;;;;;;28.88;33.52;99256.09;5152969;27;20047;-95
2024/04/14 14:06:08;;;;;;;4.70;2.60;;;;;;;28.37;33.25;99161.53;5153130;27;19929;-94
2024/04/14 14:08:35;;;;;;;15.20;3.47;;;;;;;28.44;33.75;99159.91;5150763;27;20027;-95